Time;durP1;ratioP1;P1;durP2;ratioP2;P2;SDS_P1;SDS_P2;PMS_P1;PMS_P2;Temp;Humidity;BMP_temperature;BMP_pressure;BME280_temperature;BME280_humidity;BME280_pressure;Samples;Min_cycle;Max_cycle;Signal;HPM_P1;HPM_P2
2021/11/03 00:00:58;;;;;;;19.50;11.68;;;4.30;99.90;;;;;;5046120;28;20104;-58
2021/11/03 00:03:25;;;;;;;20.17;12.18;;;4.30;99.90;;;;;;5047982;28;20025;-58
2021/11/03 00:05:51;;;;;;;19.33;11.55;;;4.40;99.90;;;;;;5047281;28;20611;-59
2021/11/03 00:08:20;;;;;;;17.52;10.77;;;4.40;99.90;;;;;;5046485;28;20025;-58
2021/11/03 00:10:49;;;;;;;20.75;12.75;;;4.40;99.90;;;;;;5040950;28;20056;-56
2021/11/03 00:13:17;;;;;;;16.83;10.98;;;4.30;99.90;;;;;;5050642;28;20037;-57
2021/11/03 00:15:42;;;;;;;17.48;10.63;;;4.30;99.90;;;;;;5048385;28;20016;-59
2021/11/03 00:18:08;;;;;;;17.90;10.75;;;4.30;99.90;;;;;;5048750;28;20031;-59
2021/11/03 00:20:35;;;;;;;21.02;12.73;;;4.30;99.90;;;;;;5048153;28;20580;-57
2021/11/03 00:23:01;;;;;;;24.60;13.10;;;4.20;99.90;;;;;;5049872;28;20405;-56
2021/11/03 00:25:27;;;;;;;26.23;13.55;;;4.30;99.90;;;;;;5045371;28;20116;-59
2021/11/03 00:27:53;;;;;;;25.95;13.30;;;4.30;99.90;;;;;;5049428;28;20031;-57
2021/11/03 00:30:19;;;;;;;26.65;14.55;;;4.30;99.90;;;;;;5052008;28;20029;-58
2021/11/03 00:32:44;;;;;;;23.38;12.13;;;4.40;99.90;;;;;;5049096;28;20021;-59
2021/11/03 00:35:10;;;;;;;20.83;12.48;;;4.40;99.90;;;;;;5053093;28;20036;-58
2021/11/03 00:37:37;;;;;;;20.38;12.05;;;4.40;99.90;;;;;;5030512;28;20017;-56
2021/11/03 00:40:05;;;;;;;18.30;11.18;;;4.40;99.90;;;;;;5049541;28;20017;-57
2021/11/03 00:42:31;;;;;;;19.73;11.40;;;4.40;99.90;;;;;;5048761;28;20029;-57
2021/11/03 00:44:56;;;;;;;19.35;11.43;;;4.40;99.90;;;;;;5051155;28;20036;-56
2021/11/03 00:47:22;;;;;;;18.70;10.68;;;4.40;99.90;;;;;;5045211;28;20028;-56
2021/11/03 00:49:47;;;;;;;20.13;10.45;;;4.40;99.90;;;;;;5039141;28;20503;-58
2021/11/03 00:52:13;;;;;;;20.65;11.35;;;4.40;99.90;;;;;;5045515;28;20044;-57
2021/11/03 00:54:39;;;;;;;16.40;10.30;;;4.40;99.90;;;;;;5039579;28;20025;-58
2021/11/03 00:57:04;;;;;;;20.90;10.63;;;4.40;99.90;;;;;;5049058;28;20032;-56
2021/11/03 00:59:30;;;;;;;16.08;9.60;;;4.40;99.90;;;;;;5049920;28;20600;-57
2021/11/03 01:01:56;;;;;;;14.65;9.10;;;4.30;99.90;;;;;;5048088;28;20040;-57
2021/11/03 01:04:21;;;;;;;13.95;8.70;;;4.40;99.90;;;;;;5036634;28;20034;-57
2021/11/03 01:06:47;;;;;;;12.52;7.65;;;4.40;99.90;;;;;;5047037;28;20039;-50
2021/11/03 01:09:13;;;;;;;12.60;8.25;;;4.30;99.90;;;;;;5048741;28;20481;-59
2021/11/03 01:11:39;;;;;;;13.85;8.82;;;4.30;99.90;;;;;;5048899;28;20021;-59
2021/11/03 01:14:06;;;;;;;12.15;8.52;;;4.30;99.90;;;;;;5045510;28;20027;-57
2021/11/03 01:16:32;;;;;;;14.30;8.45;;;4.30;99.90;;;;;;5045835;28;20037;-59
2021/11/03 01:18:58;;;;;;;13.73;9.00;;;4.30;99.90;;;;;;5045286;28;20036;-58
2021/11/03 01:21:24;;;;;;;15.73;8.63;;;4.30;99.90;;;;;;5047902;28;20029;-60
2021/11/03 01:23:51;;;;;;;17.65;9.95;;;4.40;99.90;;;;;;5046351;28;20037;-60
2021/11/03 01:26:16;;;;;;;14.98;9.48;;;4.30;99.90;;;;;;5050360;28;22066;-58
2021/11/03 01:28:42;;;;;;;17.15;9.63;;;4.40;99.90;;;;;;5045171;28;20033;-57
2021/11/03 01:31:08;;;;;;;15.90;9.90;;;4.40;99.90;;;;;;5046099;28;20501;-58
2021/11/03 01:33:33;;;;;;;16.95;9.93;;;4.40;99.90;;;;;;5040154;28;20041;-57
2021/11/03 01:35:59;;;;;;;16.38;9.77;;;4.40;99.90;;;;;;5044214;28;20037;-54
2021/11/03 01:38:24;;;;;;;23.60;10.35;;;4.50;99.90;;;;;;5044356;28;20028;-58
2021/11/03 01:40:50;;;;;;;25.52;9.65;;;4.50;99.90;;;;;;5043110;28;20059;-52
2021/11/03 01:43:34;;;;;;;12.77;9.25;;;4.50;99.90;;;;;;5039646;28;20193;-59
2021/11/03 01:46:21;;;;;;;15.03;8.80;;;4.50;99.90;;;;;;4976031;28;1082111;-50
2021/11/03 01:48:48;;;;;;;14.10;8.82;;;4.50;99.90;;;;;;5042796;28;21921;-59
2021/11/03 01:51:29;;;;;;;14.95;9.18;;;4.40;99.90;;;;;;5048585;28;20025;-60
2021/11/03 01:53:56;;;;;;;15.52;9.30;;;4.50;99.90;;;;;;5043962;28;20419;-60
2021/11/03 01:56:22;;;;;;;15.05;9.10;;;4.50;99.90;;;;;;5048683;28;20131;-56
2021/11/03 01:58:56;;;;;;;20.45;11.45;;;4.50;99.90;;;;;;5043418;28;20120;-61
2021/11/03 02:01:22;;;;;;;33.20;10.32;;;4.40;99.90;;;;;;5046992;28;20129;-55
2021/11/03 02:03:49;;;;;;;29.92;9.32;;;4.50;99.90;;;;;;5047033;28;20461;-58
2021/11/03 02:06:18;;;;;;;32.63;10.15;;;4.50;99.90;;;;;;5046396;28;20045;-57
2021/11/03 02:08:46;;;;;;;26.20;9.73;;;4.50;99.90;;;;;;5041461;28;20029;-60
2021/11/03 02:11:14;;;;;;;30.33;9.85;;;4.60;99.90;;;;;;5043063;28;20029;-58
2021/11/03 02:13:40;;;;;;;77.55;12.30;;;4.60;99.90;;;;;;5047707;28;20113;-59
2021/11/03 02:16:09;;;;;;;62.22;11.85;;;4.60;99.90;;;;;;5050725;28;20304;-58
2021/11/03 02:18:35;;;;;;;63.78;11.45;;;4.60;99.90;;;;;;5043931;28;20028;-58
2021/11/03 02:21:03;;;;;;;66.80;13.43;;;4.60;99.90;;;;;;5043127;28;20061;-58
2021/11/03 02:23:35;;;;;;;35.58;12.27;;;4.60;99.90;;;;;;5039436;28;20098;-58
2021/11/03 02:26:25;;;;;;;32.63;12.90;;;4.70;99.90;;;;;;5050215;28;20052;-58
2021/11/03 02:28:51;;;;;;;20.27;11.68;;;4.70;99.90;;;;;;5038366;28;20036;-52
2021/11/03 02:31:37;;;;;;;51.50;12.60;;;4.70;99.90;;;;;;5044956;28;20492;-58
2021/11/03 02:34:07;;;;;;;27.58;12.65;;;4.70;99.90;;;;;;5037143;28;20400;-59
2021/11/03 02:36:35;;;;;;;34.00;12.73;;;4.70;99.90;;;;;;5047333;28;20391;-58
2021/11/03 02:39:06;;;;;;;23.88;12.32;;;4.70;99.90;;;;;;5041052;28;20029;-58
2021/11/03 02:41:36;;;;;;;22.95;12.18;;;4.80;99.90;;;;;;5044231;28;20104;-58
2021/11/03 02:44:11;;;;;;;22.00;11.15;;;4.80;99.90;;;;;;5048114;28;20025;-60
2021/11/03 02:46:37;;;;;;;21.88;11.50;;;4.90;99.90;;;;;;5047214;28;20116;-59
2021/11/03 02:49:03;;;;;;;26.17;12.45;;;4.90;99.90;;;;;;5049549;28;20476;-59
2021/11/03 02:51:38;;;;;;;24.30;11.18;;;4.90;99.90;;;;;;5043875;28;20470;-59
2021/11/03 02:54:13;;;;;;;23.52;10.15;;;4.90;99.90;;;;;;5041918;28;20106;-60
2021/11/03 02:56:44;;;;;;;35.65;11.05;;;4.90;99.90;;;;;;5048002;28;20514;-60
2021/11/03 02:59:14;;;;;;;22.65;10.13;;;5.00;99.90;;;;;;5043055;28;20091;-60
2021/11/03 03:01:49;;;;;;;26.42;12.63;;;5.00;99.90;;;;;;5047202;28;20040;-59
2021/11/03 03:04:16;;;;;;;27.20;11.68;;;5.00;99.90;;;;;;5041855;28;20421;-59
2021/11/03 03:06:43;;;;;;;36.10;13.15;;;5.10;99.90;;;;;;5038842;28;20041;-58
2021/11/03 03:09:09;;;;;;;24.90;11.15;;;5.10;99.90;;;;;;5045024;28;20021;-59
2021/11/03 03:11:37;;;;;;;25.00;12.93;;;5.10;99.90;;;;;;5047202;28;20067;-61
2021/11/03 03:14:05;;;;;;;25.13;11.82;;;5.20;99.90;;;;;;5038898;28;20512;-61
2021/11/03 03:16:31;;;;;;;23.55;12.32;;;5.20;99.90;;;;;;5048861;28;20032;-59
2021/11/03 03:18:57;;;;;;;27.17;12.35;;;5.20;99.90;;;;;;5045455;28;20052;-60
2021/11/03 03:21:25;;;;;;;30.10;12.18;;;5.20;99.90;;;;;;5040152;28;20033;-59
2021/11/03 03:23:50;;;;;;;32.63;12.95;;;5.20;99.90;;;;;;5039822;28;20112;-59
2021/11/03 03:26:17;;;;;;;29.27;12.73;;;5.20;99.90;;;;;;5049026;28;20111;-61
2021/11/03 03:28:43;;;;;;;30.95;12.70;;;5.20;99.90;;;;;;5047087;28;20075;-60
2021/11/03 03:31:12;;;;;;;27.35;12.43;;;5.20;99.90;;;;;;5043448;28;20452;-58
2021/11/03 03:33:37;;;;;;;25.05;12.02;;;5.20;99.90;;;;;;5042162;28;20033;-58
2021/11/03 03:36:05;;;;;;;36.13;13.77;;;5.30;99.90;;;;;;5045710;28;20055;-58
2021/11/03 03:38:32;;;;;;;39.65;12.65;;;5.20;99.90;;;;;;5042634;28;20100;-61
2021/11/03 03:40:57;;;;;;;22.83;11.70;;;5.20;99.90;;;;;;5043990;28;20044;-61
2021/11/03 03:43:23;;;;;;;24.13;11.52;;;5.30;99.90;;;;;;5025795;28;20560;-56
2021/11/03 03:45:49;;;;;;;22.73;12.18;;;5.30;99.90;;;;;;5044482;28;20563;-60
2021/11/03 03:48:14;;;;;;;24.45;12.07;;;5.30;99.90;;;;;;5040515;28;20517;-59
2021/11/03 03:50:40;;;;;;;27.95;12.43;;;5.30;99.90;;;;;;5046571;28;20025;-58
2021/11/03 03:53:06;;;;;;;22.35;11.82;;;5.20;99.90;;;;;;5045569;28;20033;-60
2021/11/03 03:55:32;;;;;;;25.77;13.02;;;5.20;99.90;;;;;;5042346;28;20033;-56
2021/11/03 03:57:58;;;;;;;28.67;12.68;;;5.20;99.90;;;;;;5040853;28;20051;-61
2021/11/03 04:00:25;;;;;;;29.38;13.63;;;5.20;99.90;;;;;;5042196;28;20029;-60
2021/11/03 04:02:52;;;;;;;20.77;11.07;;;5.10;99.90;;;;;;5039997;28;20108;-53
2021/11/03 04:05:20;;;;;;;23.75;11.80;;;5.10;99.90;;;;;;5042080;28;20032;-59
2021/11/03 04:07:45;;;;;;;23.33;12.00;;;5.10;99.90;;;;;;5036607;28;20091;-58
2021/11/03 04:10:12;;;;;;;23.02;11.95;;;5.10;99.90;;;;;;5044455;28;20025;-58
2021/11/03 04:12:38;;;;;;;23.48;12.40;;;5.10;99.90;;;;;;5038644;28;20116;-60
2021/11/03 04:15:05;;;;;;;26.90;12.88;;;5.10;99.90;;;;;;5047407;28;20030;-60
2021/11/03 04:17:31;;;;;;;25.05;12.00;;;5.10;99.90;;;;;;5039240;28;20056;-55
2021/11/03 04:19:56;;;;;;;26.17;12.88;;;5.10;99.90;;;;;;5042195;28;20037;-60
2021/11/03 04:22:22;;;;;;;25.10;12.45;;;5.10;99.90;;;;;;5039870;28;20087;-58
2021/11/03 04:24:47;;;;;;;26.27;13.23;;;5.00;99.90;;;;;;5034628;28;20049;-58
2021/11/03 04:27:13;;;;;;;25.00;13.48;;;5.00;99.90;;;;;;5043991;28;20483;-60
2021/11/03 04:29:38;;;;;;;21.45;11.30;;;5.00;99.90;;;;;;5035013;28;20086;-62
2021/11/03 04:32:04;;;;;;;24.80;12.30;;;5.00;99.90;;;;;;5045281;28;21919;-58
2021/11/03 04:34:30;;;;;;;23.92;11.68;;;5.10;99.90;;;;;;5036344;28;20029;-59
2021/11/03 04:36:55;;;;;;;28.80;12.90;;;5.10;99.90;;;;;;5042949;28;20090;-58
2021/11/03 04:39:21;;;;;;;24.98;12.93;;;5.10;99.90;;;;;;5043354;28;20041;-59
2021/11/03 04:41:47;;;;;;;27.23;12.27;;;5.00;99.90;;;;;;5027442;28;20041;-59
2021/11/03 04:44:13;;;;;;;20.52;11.32;;;5.00;99.90;;;;;;5045179;28;20106;-60
2021/11/03 04:46:39;;;;;;;23.58;12.57;;;5.00;99.90;;;;;;5042755;28;20474;-60
2021/11/03 04:49:05;;;;;;;23.77;12.43;;;5.00;99.90;;;;;;5038049;28;20036;-58
2021/11/03 04:51:31;;;;;;;24.60;12.82;;;4.90;99.90;;;;;;5042047;28;20486;-55
2021/11/03 04:53:56;;;;;;;25.55;12.13;;;5.00;99.90;;;;;;5043175;28;20136;-59
2021/11/03 04:56:23;;;;;;;27.35;12.52;;;5.00;99.90;;;;;;5045549;28;20059;-59
2021/11/03 04:58:51;;;;;;;26.25;12.77;;;4.90;99.90;;;;;;5044343;28;20039;-61
2021/11/03 05:01:20;;;;;;;25.17;11.95;;;5.00;99.90;;;;;;5047101;28;20402;-61
2021/11/03 05:03:50;;;;;;;29.23;13.20;;;4.90;99.90;;;;;;5045137;28;20086;-59
2021/11/03 05:06:18;;;;;;;24.63;12.82;;;4.90;99.90;;;;;;5045767;28;20119;-59
2021/11/03 05:08:44;;;;;;;26.20;13.40;;;5.00;99.90;;;;;;5047036;28;20033;-60
2021/11/03 05:11:10;;;;;;;26.02;12.93;;;5.00;99.90;;;;;;5048380;28;20190;-59
2021/11/03 05:13:36;;;;;;;25.20;12.30;;;5.00;99.90;;;;;;5046496;28;20059;-61
2021/11/03 05:16:02;;;;;;;24.95;12.70;;;5.00;99.90;;;;;;5044280;28;20029;-59
2021/11/03 05:18:27;;;;;;;23.38;12.40;;;5.10;99.90;;;;;;5040664;28;20642;-54
2021/11/03 05:20:53;;;;;;;21.52;11.98;;;5.10;99.90;;;;;;5043225;28;20033;-60
2021/11/03 05:23:24;;;;;;;21.30;11.48;;;5.10;99.90;;;;;;5044407;28;20055;-58
2021/11/03 05:25:51;;;;;;;28.25;11.50;;;5.10;99.90;;;;;;5051205;28;20056;-58
2021/11/03 05:28:17;;;;;;;19.05;11.95;;;5.20;99.90;;;;;;5048692;28;20021;-59
2021/11/03 05:30:43;;;;;;;16.33;9.73;;;5.20;99.90;;;;;;5042816;28;20136;-61
2021/11/03 05:33:09;;;;;;;18.15;10.35;;;5.20;99.90;;;;;;5043831;28;20495;-59
2021/11/03 05:35:34;;;;;;;21.00;9.77;;;5.20;99.90;;;;;;5047147;28;20025;-58
2021/11/03 05:38:00;;;;;;;16.38;9.73;;;5.20;99.90;;;;;;5047240;28;20435;-58
2021/11/03 05:40:27;;;;;;;17.25;10.35;;;5.20;99.90;;;;;;5050822;28;20035;-54
2021/11/03 05:42:53;;;;;;;17.10;9.70;;;5.30;99.90;;;;;;5026266;28;20477;-59
2021/11/03 05:45:18;;;;;;;20.45;10.23;;;5.30;99.90;;;;;;5047909;28;20116;-59
2021/11/03 05:47:44;;;;;;;16.20;9.15;;;5.30;99.90;;;;;;5043158;28;20036;-59
2021/11/03 05:50:14;;;;;;;15.32;9.70;;;5.30;99.90;;;;;;5044275;28;20033;-57
2021/11/03 05:52:40;;;;;;;17.50;11.07;;;5.30;99.90;;;;;;5042935;28;20033;-61
2021/11/03 05:55:06;;;;;;;15.82;9.95;;;5.30;99.90;;;;;;5049043;28;20082;-58
2021/11/03 05:57:35;;;;;;;16.58;9.52;;;5.30;99.90;;;;;;5042193;28;20069;-54
2021/11/03 06:00:07;;;;;;;17.17;9.85;;;5.30;99.90;;;;;;5047280;28;20752;-54
2021/11/03 06:02:33;;;;;;;12.40;8.35;;;5.30;99.90;;;;;;5041051;28;20132;-59
2021/11/03 06:04:58;;;;;;;18.33;10.55;;;5.40;99.90;;;;;;5045786;28;20123;-61
2021/11/03 06:07:24;;;;;;;15.82;9.48;;;5.40;99.90;;;;;;5042479;28;20021;-60
2021/11/03 06:09:49;;;;;;;16.15;9.52;;;5.40;99.90;;;;;;5039925;28;20032;-58
2021/11/03 06:12:15;;;;;;;19.63;10.45;;;5.30;99.90;;;;;;5040612;28;20028;-57
2021/11/03 06:14:41;;;;;;;16.23;9.60;;;5.40;99.90;;;;;;5044185;28;20021;-60
2021/11/03 06:17:07;;;;;;;18.70;9.73;;;5.40;99.90;;;;;;5038065;28;20087;-58
2021/11/03 06:19:32;;;;;;;16.00;9.63;;;5.40;99.90;;;;;;5044100;28;20021;-50
2021/11/03 06:21:58;;;;;;;22.58;12.85;;;5.40;99.90;;;;;;5040107;28;21765;-60
2021/11/03 06:24:28;;;;;;;17.30;10.50;;;5.40;99.90;;;;;;5033831;28;20052;-60
2021/11/03 06:26:54;;;;;;;21.00;11.27;;;5.40;99.90;;;;;;5040793;28;20021;-59
2021/11/03 06:29:19;;;;;;;23.50;15.48;;;5.40;99.90;;;;;;5045020;28;20559;-60
2021/11/03 06:31:45;;;;;;;28.10;14.52;;;5.40;99.90;;;;;;5041147;28;20029;-60
2021/11/03 06:34:10;;;;;;;17.73;10.20;;;5.40;99.90;;;;;;5045027;28;20026;-59
2021/11/03 06:36:37;;;;;;;18.95;10.15;;;5.40;99.90;;;;;;5044954;28;20033;-53
2021/11/03 06:39:05;;;;;;;21.42;9.73;;;5.40;99.90;;;;;;5042985;28;20021;-53
2021/11/03 06:41:32;;;;;;;19.85;9.75;;;5.40;99.90;;;;;;5024209;28;20401;-53
2021/11/03 06:43:58;;;;;;;15.40;8.40;;;5.40;99.90;;;;;;5043613;28;20043;-57
2021/11/03 06:46:24;;;;;;;15.50;8.70;;;5.40;99.90;;;;;;5041654;28;20029;-60
2021/11/03 06:48:49;;;;;;;20.25;9.90;;;5.40;99.90;;;;;;5045704;28;20047;-58
2021/11/03 06:51:15;;;;;;;16.00;9.10;;;5.40;99.90;;;;;;5045802;28;20052;-56
2021/11/03 06:53:41;;;;;;;18.90;9.93;;;5.50;99.90;;;;;;5042063;28;20573;-59
2021/11/03 06:56:07;;;;;;;15.52;8.63;;;5.50;99.90;;;;;;5048603;28;20041;-61
2021/11/03 06:58:33;;;;;;;17.23;9.32;;;5.50;99.90;;;;;;5042228;28;20078;-60
2021/11/03 07:00:59;;;;;;;13.95;8.52;;;5.60;99.90;;;;;;5047261;28;20518;-58
2021/11/03 07:03:26;;;;;;;15.52;9.23;;;5.60;99.90;;;;;;5038955;28;20111;-57
2021/11/03 07:05:52;;;;;;;13.82;8.73;;;5.60;99.90;;;;;;5043291;28;20111;-59
2021/11/03 07:08:20;;;;;;;18.00;9.30;;;5.60;99.90;;;;;;5043618;28;20111;-59
2021/11/03 07:10:49;;;;;;;16.85;9.32;;;5.70;99.90;;;;;;5044134;28;20057;-60
2021/11/03 07:13:17;;;;;;;15.23;9.63;;;5.70;99.90;;;;;;5044303;28;20031;-59
2021/11/03 07:15:42;;;;;;;13.63;8.70;;;5.70;99.90;;;;;;5042937;28;20040;-59
2021/11/03 07:18:10;;;;;;;15.95;9.02;;;5.80;99.90;;;;;;5035929;28;20029;-59
2021/11/03 07:20:37;;;;;;;15.05;9.50;;;5.80;99.90;;;;;;5038932;28;20017;-60
2021/11/03 07:23:03;;;;;;;14.07;8.68;;;5.80;99.90;;;;;;5046274;28;20509;-59
2021/11/03 07:25:29;;;;;;;15.00;8.77;;;5.80;99.90;;;;;;5042993;28;20499;-58
2021/11/03 07:27:57;;;;;;;12.88;7.85;;;5.90;99.90;;;;;;5041053;28;20032;-60
2021/11/03 07:30:26;;;;;;;14.52;8.82;;;5.90;99.90;;;;;;5049430;28;20650;-61
2021/11/03 07:32:52;;;;;;;14.52;8.85;;;5.90;99.90;;;;;;5044090;28;20025;-58
2021/11/03 07:35:18;;;;;;;14.57;8.13;;;5.90;99.90;;;;;;5048714;28;20036;-59
2021/11/03 07:37:44;;;;;;;16.17;8.63;;;5.90;99.90;;;;;;5044096;28;20029;-61
2021/11/03 07:40:15;;;;;;;14.43;8.30;;;5.90;99.90;;;;;;5044087;28;20034;-58
2021/11/03 07:42:41;;;;;;;16.58;9.10;;;6.00;99.90;;;;;;5024944;28;20045;-59
2021/11/03 07:45:08;;;;;;;14.10;8.15;;;6.00;99.90;;;;;;5037309;28;20108;-59
2021/11/03 07:47:33;;;;;;;15.55;9.32;;;6.10;99.90;;;;;;5040258;28;20107;-53
2021/11/03 07:49:59;;;;;;;13.52;8.50;;;6.10;99.90;;;;;;5041174;28;20059;-60
2021/11/03 07:52:25;;;;;;;13.48;8.90;;;6.20;99.90;;;;;;5043806;28;20163;-59
2021/11/03 07:54:50;;;;;;;14.68;8.18;;;6.30;99.90;;;;;;5045587;28;20025;-60
2021/11/03 07:57:16;;;;;;;12.48;8.10;;;6.30;99.90;;;;;;5043814;28;20021;-56
2021/11/03 07:59:42;;;;;;;14.73;8.25;;;6.40;99.90;;;;;;5041282;28;20029;-62
2021/11/03 08:02:08;;;;;;;13.18;7.97;;;6.40;99.90;;;;;;5039588;28;20051;-59
2021/11/03 08:04:34;;;;;;;14.32;8.50;;;6.40;99.90;;;;;;5043598;28;20415;-61
2021/11/03 08:07:00;;;;;;;12.18;7.70;;;6.50;99.90;;;;;;5039636;28;20025;-60
2021/11/03 08:09:26;;;;;;;13.02;8.00;;;6.50;99.90;;;;;;5045306;28;20029;-62
2021/11/03 08:11:54;;;;;;;11.82;7.95;;;6.50;99.90;;;;;;5039808;28;20021;-60
2021/11/03 08:14:30;;;;;;;11.55;7.63;;;6.50;99.90;;;;;;5041718;28;20021;-59
2021/11/03 08:17:08;;;;;;;11.68;7.82;;;6.50;99.90;;;;;;5038412;28;20033;-59
2021/11/03 08:19:49;;;;;;;15.15;7.57;;;6.60;99.90;;;;;;5043128;28;20068;-52
2021/11/03 08:22:20;;;;;;;12.55;8.50;;;6.60;99.90;;;;;;5042078;28;20382;-60
2021/11/03 08:24:50;;;;;;;12.60;8.93;;;6.60;99.90;;;;;;5045544;28;20494;-60
2021/11/03 08:27:17;;;;;;;20.52;9.18;;;6.60;99.90;;;;;;5045340;28;20108;-59
2021/11/03 08:29:43;;;;;;;20.92;11.10;;;6.60;99.90;;;;;;5047450;28;20567;-61
2021/11/03 08:32:13;;;;;;;16.92;9.75;;;6.60;99.90;;;;;;5049338;28;20021;-60
2021/11/03 08:34:39;;;;;;;17.27;10.48;;;6.70;99.90;;;;;;5051277;28;20591;-59
2021/11/03 08:37:09;;;;;;;13.70;9.50;;;6.70;99.90;;;;;;5043972;28;20723;-60
2021/11/03 08:39:37;;;;;;;13.40;8.98;;;6.80;99.90;;;;;;5048427;28;20047;-59
2021/11/03 08:42:03;;;;;;;12.75;8.35;;;6.90;99.90;;;;;;5028107;28;20032;-60
2021/11/03 08:44:29;;;;;;;12.68;8.60;;;6.90;99.90;;;;;;5045149;28;20037;-62
2021/11/03 08:46:55;;;;;;;15.88;8.68;;;6.90;99.90;;;;;;5044412;28;20025;-61
2021/11/03 08:49:21;;;;;;;12.35;8.18;;;7.00;99.90;;;;;;5048008;28;20028;-60
2021/11/03 08:51:46;;;;;;;16.63;8.45;;;6.90;99.90;;;;;;5050513;28;20103;-61
2021/11/03 08:54:12;;;;;;;10.88;7.18;;;7.00;99.90;;;;;;5042410;28;20022;-61
2021/11/03 08:56:39;;;;;;;13.13;8.63;;;7.00;99.90;;;;;;5048817;28;20039;-60
2021/11/03 08:59:08;;;;;;;13.95;8.13;;;7.00;99.90;;;;;;5047781;28;20053;-61
2021/11/03 09:01:35;;;;;;;11.75;8.05;;;7.00;99.90;;;;;;5045732;28;20044;-59
2021/11/03 09:04:01;;;;;;;15.35;8.07;;;7.10;99.90;;;;;;5044699;28;20037;-61
2021/11/03 09:06:27;;;;;;;12.73;7.90;;;7.10;99.90;;;;;;5047671;28;20029;-59
2021/11/03 09:08:52;;;;;;;11.25;6.78;;;7.10;99.90;;;;;;5043061;28;20044;-61
2021/11/03 09:11:19;;;;;;;12.20;7.82;;;7.20;99.90;;;;;;5045695;28;20022;-60
2021/11/03 09:13:45;;;;;;;13.20;8.48;;;7.30;99.90;;;;;;5047680;28;20029;-59
2021/11/03 09:16:12;;;;;;;11.85;7.93;;;7.20;99.90;;;;;;5044017;28;20112;-61
2021/11/03 09:18:38;;;;;;;10.60;7.43;;;7.20;99.90;;;;;;5043947;28;20029;-61
2021/11/03 09:21:07;;;;;;;14.93;8.30;;;7.30;99.90;;;;;;5045160;28;20746;-59
2021/11/03 09:23:33;;;;;;;13.52;8.38;;;7.30;99.90;;;;;;5043917;28;20138;-52
2021/11/03 09:26:00;;;;;;;10.45;7.75;;;7.40;99.90;;;;;;5042140;28;20041;-60
2021/11/03 09:28:28;;;;;;;13.15;8.15;;;7.30;99.90;;;;;;5049255;28;20024;-58
2021/11/03 09:30:55;;;;;;;14.02;7.80;;;7.30;99.90;;;;;;5043415;28;20040;-57
2021/11/03 09:33:21;;;;;;;20.45;8.40;;;7.30;99.90;;;;;;5040972;28;20515;-61
2021/11/03 09:35:49;;;;;;;12.68;7.93;;;7.30;99.90;;;;;;5050577;28;20021;-59
2021/11/03 09:38:18;;;;;;;11.32;7.97;;;7.40;99.90;;;;;;5047627;28;20025;-60
2021/11/03 09:41:06;;;;;;;12.38;8.63;;;7.40;99.90;;;;;;5050672;28;20063;-60
2021/11/03 09:43:46;;;;;;;11.02;8.57;;;7.50;99.90;;;;;;5024736;28;20033;-60
2021/11/03 09:46:29;;;;;;;14.38;9.30;;;7.50;99.90;;;;;;5050659;28;20067;-59
2021/11/03 09:49:18;;;;;;;13.10;9.38;;;7.60;99.90;;;;;;5049187;28;20107;-60
2021/11/03 09:51:55;;;;;;;14.82;10.25;;;7.60;99.90;;;;;;5044251;28;20032;-61
2021/11/03 09:54:27;;;;;;;15.85;11.27;;;7.60;99.90;;;;;;5046887;28;20013;-61
2021/11/03 09:57:17;;;;;;;18.10;12.48;;;7.60;99.90;;;;;;5049921;28;20033;-60
2021/11/03 10:00:02;;;;;;;12.57;9.18;;;7.60;99.90;;;;;;5035887;28;20037;-60
2021/11/03 10:02:36;;;;;;;;;;;7.60;99.90;;;;;;5045226;28;20704;-59
2021/11/03 10:05:27;;;;;;;12.75;8.80;;;7.60;99.90;;;;;;5049758;28;19909;-58
2021/11/03 10:08:05;;;;;;;14.38;8.55;;;7.60;99.90;;;;;;5046376;28;20075;-60
2021/11/03 10:10:39;;;;;;;10.07;7.40;;;7.60;99.90;;;;;;5050311;28;20505;-59
2021/11/03 10:13:20;;;;;;;14.35;8.63;;;7.60;99.90;;;;;;5036416;28;20079;-55
2021/11/03 10:16:14;;;;;;;12.45;7.78;;;7.60;99.90;;;;;;5048539;28;20049;-59
2021/11/03 10:18:52;;;;;;;14.13;9.48;;;7.60;99.90;;;;;;5018317;28;20041;-59
2021/11/03 10:21:23;;;;;;;17.52;10.57;;;7.60;99.90;;;;;;5050354;28;20017;-58
2021/11/03 10:23:57;;;;;;;18.63;11.60;;;7.60;99.90;;;;;;5040439;28;20030;-61
2021/11/03 10:26:26;;;;;;;14.60;8.68;;;7.60;99.90;;;;;;5048575;28;20063;-59
2021/11/03 10:29:09;;;;;;;12.80;7.57;;;7.60;99.90;;;;;;5049618;28;20537;-57
2021/11/03 10:31:41;;;;;;;16.15;9.23;;;7.60;99.90;;;;;;5046826;28;20027;-52
2021/11/03 10:34:40;;;;;;;11.68;8.00;;;7.60;99.90;;;;;;5042852;28;20102;-60
2021/11/03 10:37:32;;;;;;;12.23;8.77;;;7.60;99.90;;;;;;5042100;28;20036;-58
2021/11/03 10:40:17;;;;;;;12.80;8.35;;;7.60;99.90;;;;;;5049513;28;20116;-60
2021/11/03 10:42:51;;;;;;;12.77;8.30;;;7.60;99.90;;;;;;5031030;28;20032;-60
2021/11/03 10:45:22;;;;;;;15.90;8.23;;;7.60;99.90;;;;;;5033931;28;20039;-57
2021/11/03 10:48:06;;;;;;;14.30;9.10;;;7.60;99.90;;;;;;5039489;28;20415;-59
2021/11/03 10:50:40;;;;;;;15.48;9.98;;;7.60;99.90;;;;;;5044109;28;20533;-58
2021/11/03 10:53:31;;;;;;;13.00;7.85;;;7.60;99.90;;;;;;5041722;28;20041;-57
2021/11/03 10:56:15;;;;;;;14.32;8.57;;;7.60;99.90;;;;;;5049651;28;20040;-60
2021/11/03 10:58:50;;;;;;;12.63;8.20;;;7.50;99.90;;;;;;5044763;28;20520;-58
2021/11/03 11:01:45;;;;;;;11.80;7.65;;;7.60;99.90;;;;;;5047000;28;20524;-56
2021/11/03 11:04:21;;;;;;;11.57;7.78;;;7.60;99.90;;;;;;5040509;28;20110;-59
2021/11/03 11:07:07;;;;;;;11.77;6.68;;;7.50;99.90;;;;;;5048911;28;20021;-56
2021/11/03 11:10:10;;;;;;;10.80;7.63;;;7.50;99.90;;;;;;5042835;28;20029;-52
2021/11/03 11:12:42;;;;;;;15.57;8.27;;;7.50;99.90;;;;;;5033826;28;20030;-60
2021/11/03 11:15:14;;;;;;;11.60;8.60;;;7.50;99.90;;;;;;5042258;28;20426;-61
2021/11/03 11:17:51;;;;;;;16.40;8.43;;;7.50;99.90;;;;;;5038769;28;20033;-60
2021/11/03 11:20:28;;;;;;;11.32;7.55;;;7.50;99.90;;;;;;5041647;28;20026;-61
2021/11/03 11:22:59;;;;;;;11.52;7.82;;;7.50;99.90;;;;;;5048235;28;20047;-59
2021/11/03 11:25:54;;;;;;;12.65;7.50;;;7.50;99.90;;;;;;5047398;28;20040;-60
2021/11/03 11:28:53;;;;;;;14.85;9.30;;;7.40;99.90;;;;;;5047607;28;20029;-60
2021/11/03 11:31:29;;;;;;;11.57;7.05;;;7.40;99.90;;;;;;5049295;28;20025;-58
2021/11/03 11:34:01;;;;;;;11.70;6.63;;;7.50;99.90;;;;;;5042157;28;20558;-58
2021/11/03 11:36:43;;;;;;;15.95;7.68;;;7.40;99.90;;;;;;5042624;28;20411;-60
2021/11/03 11:39:47;;;;;;;14.40;7.32;;;7.50;99.90;;;;;;5047428;28;20028;-60
2021/11/03 11:42:42;;;;;;;10.05;6.05;;;7.40;99.90;;;;;;5018590;28;20060;-59
2021/11/03 11:45:28;;;;;;;11.63;6.88;;;7.40;99.90;;;;;;5044150;28;20059;-60
2021/11/03 11:48:03;;;;;;;8.05;4.50;;;7.40;99.90;;;;;;5041815;28;20167;-58
2021/11/03 11:50:49;;;;;;;7.70;5.35;;;7.40;99.90;;;;;;5042408;28;20025;-59
2021/11/03 11:53:56;;;;;;;9.05;5.03;;;7.40;99.90;;;;;;5042974;28;20044;-58
2021/11/03 11:56:29;;;;;;;7.97;5.30;;;7.40;99.90;;;;;;5023082;28;20040;-60
2021/11/03 11:59:08;;;;;;;9.55;5.05;;;7.40;99.90;;;;;;5046045;28;20412;-55
2021/11/03 12:01:54;;;;;;;8.98;5.10;;;7.40;99.90;;;;;;5047507;28;20446;-56
2021/11/03 12:04:39;;;;;;;8.82;5.85;;;7.40;99.90;;;;;;5042488;28;20406;-59
2021/11/03 12:07:21;;;;;;;8.98;4.60;;;7.40;99.90;;;;;;5043676;28;20029;-59
2021/11/03 12:10:23;;;;;;;6.57;4.15;;;7.40;99.90;;;;;;5046378;28;20035;-61
2021/11/03 12:13:08;;;;;;;7.30;3.83;;;7.40;99.90;;;;;;5045149;28;20478;-60
2021/11/03 12:15:48;;;;;;;6.43;3.33;;;7.40;99.90;;;;;;5045811;28;20032;-53
2021/11/03 12:18:25;;;;;;;4.40;2.78;;;7.40;99.90;;;;;;5046784;28;20021;-62
2021/11/03 12:21:13;;;;;;;4.25;3.03;;;7.50;99.90;;;;;;5046565;28;20051;-59
2021/11/03 12:23:50;;;;;;;4.47;2.80;;;7.50;99.90;;;;;;5041818;28;20059;-56
2021/11/03 12:26:30;;;;;;;3.45;2.65;;;7.50;99.90;;;;;;5048640;28;20044;-59
2021/11/03 12:28:59;;;;;;;3.15;2.20;;;7.50;99.90;;;;;;5042027;28;20033;-60
2021/11/03 12:31:53;;;;;;;3.05;2.17;;;7.50;99.90;;;;;;5047221;28;20477;-60
2021/11/03 12:34:31;;;;;;;4.22;1.90;;;7.50;99.90;;;;;;5042960;28;20151;-59
2021/11/03 12:37:05;;;;;;;4.47;2.00;;;7.50;99.90;;;;;;5047033;28;20045;-59
2021/11/03 12:39:30;;;;;;;;;;;7.60;99.90;;;;;;5046558;28;20033;-58
2021/11/03 12:42:03;;;;;;;1.40;1.25;;;7.60;99.90;;;;;;5048515;28;19958;-57
2021/11/03 12:44:57;;;;;;;3.70;1.13;;;7.60;99.90;;;;;;5026360;28;20068;-56
2021/11/03 12:47:43;;;;;;;1.50;1.13;;;7.60;99.90;;;;;;5033361;28;20041;-55
2021/11/03 12:50:33;;;;;;;3.05;1.70;;;7.60;99.90;;;;;;5047961;28;20120;-58
2021/11/03 12:53:31;;;;;;;1.70;1.38;;;7.70;99.90;;;;;;5047024;28;20453;-57
2021/11/03 12:56:10;;;;;;;2.40;1.05;;;7.70;99.90;;;;;;5046563;28;20045;-56
2021/11/03 12:58:46;;;;;;;1.60;1.05;;;7.70;99.90;;;;;;5043720;28;20024;-58
2021/11/03 13:01:21;;;;;;;2.05;1.10;;;7.70;99.90;;;;;;5043398;28;20041;-60